createdAt,value
2024-01-31T00:00:43.034Z,75.31
2024-01-31T00:03:09.730Z,75.65
2024-01-31T00:05:36.679Z,75.82
2024-01-31T00:08:03.937Z,76.00
2024-01-31T00:10:30.968Z,75.94
2024-01-31T00:12:57.991Z,75.99
2024-01-31T00:15:25.219Z,76.03
2024-01-31T00:17:52.824Z,76.18
2024-01-31T00:20:19.725Z,75.97
2024-01-31T00:22:46.798Z,75.90
2024-01-31T00:25:13.935Z,75.74
2024-01-31T00:27:41.337Z,75.57
2024-01-31T00:30:11.035Z,75.52
2024-01-31T00:32:37.924Z,75.46
2024-01-31T00:35:05.629Z,75.11
2024-01-31T00:37:32.748Z,75.07
2024-01-31T00:39:59.969Z,74.94
2024-01-31T00:42:26.695Z,74.57
2024-01-31T00:44:53.629Z,74.36
2024-01-31T00:47:20.650Z,74.25
2024-01-31T00:49:47.719Z,74.15
2024-01-31T00:52:17.142Z,74.21
2024-01-31T00:54:46.277Z,74.15
2024-01-31T00:57:14.502Z,73.97
2024-01-31T00:59:43.072Z,74.13
2024-01-31T01:02:10.614Z,73.88
2024-01-31T01:04:37.752Z,73.92
2024-01-31T01:07:05.201Z,73.63
2024-01-31T01:09:32.187Z,73.45
2024-01-31T01:11:59.058Z,73.46
2024-01-31T01:14:25.976Z,73.53
2024-01-31T01:16:52.818Z,73.30
2024-01-31T01:19:19.641Z,72.97
2024-01-31T01:21:46.713Z,72.72
2024-01-31T01:24:13.545Z,72.67
2024-01-31T01:26:41.206Z,72.72
2024-01-31T01:29:08.548Z,72.59
2024-01-31T01:31:35.783Z,72.36
2024-01-31T01:34:02.807Z,72.37
2024-01-31T01:36:30.009Z,72.21
2024-01-31T01:38:56.852Z,72.30
2024-01-31T01:41:23.601Z,72.40
2024-01-31T01:43:50.540Z,72.63
2024-01-31T01:46:21.932Z,72.42
2024-01-31T01:48:49.057Z,72.70
2024-01-31T01:51:17.956Z,72.91
2024-01-31T01:53:47.972Z,73.09
2024-01-31T01:56:16.010Z,73.06
2024-01-31T01:58:43.387Z,72.98
2024-01-31T02:01:10.365Z,72.96
2024-01-31T02:03:37.160Z,72.95
2024-01-31T02:06:04.712Z,72.96
2024-01-31T02:08:31.777Z,73.02
2024-01-31T02:10:58.492Z,72.96
2024-01-31T02:13:25.437Z,72.91
2024-01-31T02:15:53.614Z,72.95
2024-01-31T02:18:22.045Z,72.76
2024-01-31T02:20:49.033Z,72.63
2024-01-31T02:23:16.390Z,72.47
2024-01-31T02:25:43.300Z,72.27
2024-01-31T02:28:10.534Z,72.02
2024-01-31T02:30:40.292Z,71.98
2024-01-31T02:33:07.094Z,71.80
2024-01-31T02:35:35.045Z,71.57
2024-01-31T02:38:02.253Z,71.59
2024-01-31T02:40:32.286Z,71.65
2024-01-31T02:43:00.502Z,71.46
2024-01-31T02:45:30.558Z,71.47
2024-01-31T02:47:57.468Z,71.39
2024-01-31T02:50:26.089Z,71.40
2024-01-31T02:52:53.034Z,71.40
2024-01-31T02:55:19.721Z,71.48
2024-01-31T02:57:46.716Z,71.62
2024-01-31T03:00:14.603Z,71.65
2024-01-31T03:02:45.374Z,71.82
2024-01-31T03:05:13.026Z,71.92
2024-01-31T03:07:40.238Z,72.28
2024-01-31T03:10:08.147Z,72.32
2024-01-31T03:12:35.150Z,72.41
2024-01-31T03:15:02.738Z,72.67
2024-01-31T03:17:36.300Z,72.80
2024-01-31T03:20:07.251Z,72.86
2024-01-31T03:22:35.501Z,73.09
2024-01-31T03:25:03.141Z,73.04
2024-01-31T03:27:30.124Z,73.25
2024-01-31T03:30:02.493Z,73.22
2024-01-31T03:32:32.234Z,73.07
2024-01-31T03:34:59.975Z,72.99
2024-01-31T03:37:27.572Z,73.02
2024-01-31T03:39:54.371Z,72.92
2024-01-31T03:42:21.137Z,72.76
2024-01-31T03:44:48.057Z,72.79
2024-01-31T03:47:15.245Z,72.76
2024-01-31T03:49:42.639Z,72.61
2024-01-31T03:52:09.763Z,72.57
2024-01-31T03:54:36.657Z,72.66
2024-01-31T03:57:03.515Z,72.78
2024-01-31T03:59:30.347Z,72.71
2024-01-31T04:01:57.376Z,72.83
2024-01-31T04:04:24.410Z,72.92
2024-01-31T04:06:51.936Z,72.85
2024-01-31T04:09:18.865Z,72.85
2024-01-31T04:11:45.667Z,72.92
2024-01-31T04:14:12.552Z,72.91
2024-01-31T04:16:39.865Z,73.12
2024-01-31T04:19:07.714Z,72.87
2024-01-31T04:21:34.577Z,72.98
2024-01-31T04:24:01.521Z,73.00
2024-01-31T04:26:28.372Z,72.97
2024-01-31T04:28:55.200Z,72.82
2024-01-31T04:31:22.111Z,72.88
2024-01-31T04:33:49.030Z,72.83
2024-01-31T04:36:16.076Z,73.07
2024-01-31T04:38:42.989Z,73.16
2024-01-31T04:41:09.870Z,73.27
2024-01-31T04:43:36.741Z,73.15
2024-01-31T04:46:04.055Z,73.26
2024-01-31T04:48:31.153Z,73.59
2024-01-31T04:50:58.119Z,73.81
2024-01-31T04:53:25.070Z,73.71
2024-01-31T04:55:51.926Z,73.70
2024-01-31T04:58:18.704Z,73.95
2024-01-31T05:00:45.803Z,73.94
2024-01-31T05:03:12.575Z,73.97
2024-01-31T05:05:39.457Z,74.09
2024-01-31T05:08:07.030Z,74.29
2024-01-31T05:10:35.395Z,74.21
2024-01-31T05:13:02.909Z,74.10
2024-01-31T05:15:31.780Z,74.22
2024-01-31T05:18:00.763Z,74.26
2024-01-31T05:20:29.990Z,74.18
2024-01-31T05:22:57.305Z,74.12
2024-01-31T05:25:24.257Z,74.12
2024-01-31T05:27:51.114Z,74.15
2024-01-31T05:30:18.032Z,74.04
2024-01-31T05:32:46.649Z,73.92
2024-01-31T05:35:14.311Z,73.84
2024-01-31T05:37:41.383Z,73.87
2024-01-31T05:40:12.433Z,73.58
2024-01-31T05:42:39.770Z,73.62
2024-01-31T05:45:07.383Z,73.54
2024-01-31T05:47:34.358Z,73.62
2024-01-31T05:50:01.283Z,73.70
2024-01-31T05:52:28.633Z,73.78
2024-01-31T05:54:55.618Z,73.66
2024-01-31T05:57:22.431Z,73.62
2024-01-31T05:59:49.351Z,73.51
2024-01-31T06:02:16.489Z,73.22
2024-01-31T06:04:43.646Z,73.39
2024-01-31T06:07:13.180Z,73.12
2024-01-31T06:09:40.410Z,72.75
2024-01-31T06:12:07.457Z,72.55
2024-01-31T06:14:37.161Z,72.43
2024-01-31T06:17:04.844Z,72.08
2024-01-31T06:19:31.972Z,71.40
2024-01-31T06:21:59.211Z,70.65
2024-01-31T06:24:26.270Z,69.92
2024-01-31T06:26:53.113Z,68.89
2024-01-31T06:29:20.105Z,67.52
2024-01-31T06:31:48.174Z,65.99
2024-01-31T06:34:15.998Z,64.37
2024-01-31T06:36:43.597Z,62.38
2024-01-31T06:39:10.499Z,60.78
2024-01-31T06:41:38.176Z,59.46
2024-01-31T06:44:05.416Z,58.60
2024-01-31T06:46:32.539Z,58.23
2024-01-31T06:49:00.202Z,58.08
2024-01-31T06:51:27.397Z,57.71
2024-01-31T06:53:54.320Z,57.37
2024-01-31T06:56:21.430Z,57.66
2024-01-31T06:58:49.482Z,57.33
2024-01-31T07:01:17.219Z,56.95
2024-01-31T07:03:47.468Z,56.76
2024-01-31T07:06:15.599Z,56.19
2024-01-31T07:08:42.532Z,55.75
2024-01-31T07:11:09.613Z,55.51
2024-01-31T07:13:36.997Z,55.45
2024-01-31T07:16:05.688Z,55.29
2024-01-31T07:18:33.423Z,55.58
2024-01-31T07:21:00.340Z,55.65
2024-01-31T07:23:34.297Z,55.78
2024-01-31T07:26:01.233Z,56.06
2024-01-31T07:28:28.292Z,56.21
2024-01-31T07:30:55.989Z,56.62
2024-01-31T07:33:23.401Z,56.83
2024-01-31T07:35:51.724Z,56.88
2024-01-31T07:38:21.644Z,57.21
2024-01-31T07:40:49.647Z,57.00
2024-01-31T07:43:17.037Z,57.13
2024-01-31T07:45:44.594Z,57.21
2024-01-31T07:48:14.398Z,57.25
2024-01-31T07:50:41.396Z,57.36
2024-01-31T07:53:08.173Z,57.49
2024-01-31T07:55:38.994Z,57.11
2024-01-31T07:58:06.145Z,56.82
2024-01-31T08:00:33.365Z,56.60
2024-01-31T08:03:01.217Z,56.24
2024-01-31T08:05:28.852Z,56.08
2024-01-31T08:07:55.887Z,55.74
2024-01-31T08:10:23.729Z,55.44
2024-01-31T08:12:51.074Z,55.30
2024-01-31T08:15:18.777Z,54.94
2024-01-31T08:17:47.768Z,54.47
2024-01-31T08:20:14.750Z,54.32
2024-01-31T08:22:41.929Z,54.44
2024-01-31T08:25:10.191Z,54.32
2024-01-31T08:27:37.197Z,54.43
2024-01-31T08:30:04.933Z,54.55
2024-01-31T08:32:35.289Z,54.49
2024-01-31T08:35:03.460Z,54.36
2024-01-31T08:37:31.356Z,53.89
2024-01-31T08:39:58.419Z,52.96
2024-01-31T08:42:29.550Z,52.18
2024-01-31T08:44:56.806Z,51.33
2024-01-31T08:47:23.876Z,50.64
2024-01-31T08:49:50.892Z,49.91
2024-01-31T08:52:18.417Z,48.16
2024-01-31T08:54:45.524Z,45.88
2024-01-31T08:57:12.742Z,43.18
2024-01-31T08:59:39.857Z,40.61
2024-01-31T09:02:08.632Z,38.97
2024-01-31T09:04:36.363Z,36.82
2024-01-31T09:07:03.751Z,35.07
2024-01-31T09:09:33.406Z,33.82
2024-01-31T09:12:01.068Z,32.18
2024-01-31T09:14:28.075Z,31.20
2024-01-31T09:16:55.206Z,30.14
2024-01-31T09:19:22.507Z,29.13
2024-01-31T09:21:49.529Z,28.38
2024-01-31T09:24:16.528Z,27.84
2024-01-31T09:26:44.245Z,27.13
2024-01-31T09:29:11.333Z,26.81
2024-01-31T09:31:38.956Z,26.80
2024-01-31T09:34:06.121Z,26.77
2024-01-31T09:36:33.202Z,26.79
2024-01-31T09:39:00.473Z,26.11
2024-01-31T09:41:27.544Z,25.74
2024-01-31T09:43:54.641Z,25.61
2024-01-31T09:46:21.737Z,25.51
2024-01-31T09:48:48.886Z,25.14
2024-01-31T09:51:15.967Z,24.73
2024-01-31T09:53:43.408Z,24.60
2024-01-31T09:56:10.350Z,24.57
2024-01-31T09:58:37.744Z,24.55
2024-01-31T10:01:10.644Z,24.82
2024-01-31T10:03:41.968Z,25.06
2024-01-31T10:06:12.292Z,25.37
2024-01-31T10:08:40.020Z,25.57
2024-01-31T10:11:07.350Z,25.58
2024-01-31T10:13:34.502Z,25.60
2024-01-31T10:16:02.012Z,25.16
2024-01-31T10:18:29.906Z,25.30
2024-01-31T10:21:00.707Z,25.03
2024-01-31T10:23:27.752Z,24.77
2024-01-31T10:25:56.045Z,24.52
2024-01-31T10:28:23.652Z,24.25
2024-01-31T10:30:51.151Z,23.74
2024-01-31T10:33:18.411Z,23.40
2024-01-31T10:36:24.153Z,23.33
2024-01-31T10:38:33.762Z,22.88
2024-01-31T10:41:01.037Z,22.79
2024-01-31T10:43:28.206Z,22.75
2024-01-31T10:45:55.228Z,22.73
2024-01-31T10:48:22.366Z,22.84
2024-01-31T10:50:51.549Z,22.83
2024-01-31T10:53:18.607Z,22.53
2024-01-31T10:55:45.847Z,22.40
2024-01-31T10:58:13.886Z,22.20
2024-01-31T11:00:47.103Z,22.00
2024-01-31T11:03:15.204Z,22.15
2024-01-31T11:05:42.538Z,21.62
2024-01-31T11:08:20.090Z,21.83
2024-01-31T11:10:47.074Z,22.47
2024-01-31T11:13:14.149Z,23.04
2024-01-31T11:15:41.622Z,23.60
2024-01-31T11:18:10.647Z,24.44
2024-01-31T11:20:48.088Z,25.66
2024-01-31T11:23:20.248Z,26.69
2024-01-31T11:25:47.785Z,27.61
2024-01-31T11:28:16.334Z,28.58
2024-01-31T11:30:43.849Z,29.42
2024-01-31T11:33:11.187Z,30.28
2024-01-31T11:35:42.318Z,30.99
2024-01-31T11:38:09.317Z,31.36
2024-01-31T11:40:36.060Z,31.57
2024-01-31T11:43:04.183Z,32.00
2024-01-31T11:45:31.422Z,32.48
2024-01-31T11:47:58.819Z,32.78
2024-01-31T11:50:26.644Z,32.82
2024-01-31T11:52:53.778Z,32.95
2024-01-31T11:55:22.669Z,33.12
2024-01-31T11:57:53.346Z,33.35
2024-01-31T12:00:21.624Z,33.68
2024-01-31T12:02:49.860Z,34.19
2024-01-31T12:05:17.713Z,34.72
2024-01-31T12:07:56.452Z,34.92
2024-01-31T12:10:27.521Z,35.01
2024-01-31T12:12:56.779Z,35.11
2024-01-31T12:15:23.663Z,35.28
2024-01-31T12:17:51.382Z,35.15
2024-01-31T12:20:18.519Z,35.08
2024-01-31T12:22:46.120Z,35.33
2024-01-31T12:25:13.041Z,35.30
2024-01-31T12:27:40.239Z,35.09
2024-01-31T12:30:08.725Z,34.88
2024-01-31T12:32:36.265Z,34.97
2024-01-31T12:35:04.951Z,35.04
2024-01-31T12:37:31.967Z,35.22
2024-01-31T12:39:59.402Z,35.43
2024-01-31T12:42:26.809Z,35.75
2024-01-31T12:44:54.133Z,35.93
2024-01-31T12:47:21.058Z,36.03
2024-01-31T12:49:48.196Z,36.20
2024-01-31T12:52:16.124Z,36.34
2024-01-31T12:54:43.122Z,36.40
2024-01-31T12:57:10.106Z,36.62
2024-01-31T12:59:37.604Z,36.59
2024-01-31T13:02:04.970Z,36.92
2024-01-31T13:04:31.857Z,37.02
2024-01-31T13:06:59.509Z,37.40
2024-01-31T13:09:27.171Z,37.55
2024-01-31T13:11:54.224Z,37.73
2024-01-31T13:14:21.386Z,37.88
2024-01-31T13:16:55.369Z,38.12
2024-01-31T13:19:28.956Z,38.35
2024-01-31T13:21:56.513Z,38.68
2024-01-31T13:24:23.668Z,38.93
2024-01-31T13:26:51.234Z,39.06
2024-01-31T13:29:19.790Z,39.37
2024-01-31T13:31:46.786Z,39.68
2024-01-31T13:34:14.147Z,39.79
2024-01-31T13:36:41.557Z,39.85
2024-01-31T13:39:08.549Z,40.19
2024-01-31T13:41:38.743Z,40.39
2024-01-31T13:44:05.808Z,40.79
2024-01-31T13:46:32.868Z,40.72
2024-01-31T13:49:00.661Z,40.97
2024-01-31T13:51:28.200Z,41.26
2024-01-31T13:53:55.499Z,41.72
2024-01-31T13:56:22.673Z,41.97
2024-01-31T13:58:49.881Z,42.20
2024-01-31T14:01:16.902Z,42.68
2024-01-31T14:03:44.739Z,42.96
2024-01-31T14:06:11.981Z,43.27
2024-01-31T14:08:39.167Z,43.54
2024-01-31T14:19:00.741Z,44.72
2024-01-31T14:21:27.614Z,45.16
2024-01-31T14:24:01.085Z,45.45
2024-01-31T14:26:36.489Z,45.51
2024-01-31T14:29:03.420Z,45.83
2024-01-31T14:31:30.342Z,46.16
2024-01-31T14:33:57.474Z,46.32
2024-01-31T14:36:25.791Z,46.47
2024-01-31T14:38:52.728Z,46.71
2024-01-31T14:41:19.717Z,46.90
2024-01-31T14:43:46.848Z,47.16
2024-01-31T14:46:15.492Z,47.53
2024-01-31T14:48:43.927Z,47.89
2024-01-31T14:51:11.254Z,48.17
2024-01-31T14:53:38.496Z,48.43
2024-01-31T14:56:05.574Z,48.72
2024-01-31T14:58:32.399Z,48.96
2024-01-31T15:01:00.955Z,49.19
2024-01-31T15:03:27.645Z,49.47
2024-01-31T15:05:54.689Z,49.54
2024-01-31T15:08:22.187Z,49.85
2024-01-31T15:10:49.571Z,50.00
2024-01-31T15:13:16.222Z,50.08
2024-01-31T15:15:42.952Z,50.15
2024-01-31T15:18:09.860Z,50.47
2024-01-31T15:20:40.740Z,50.58
2024-01-31T15:23:07.455Z,50.73
2024-01-31T15:25:34.241Z,50.70
2024-01-31T15:28:00.914Z,50.95
2024-01-31T15:30:27.791Z,51.15
2024-01-31T15:32:54.856Z,51.28
2024-01-31T15:35:22.007Z,51.39
2024-01-31T15:37:51.543Z,51.39
2024-01-31T15:40:20.830Z,51.66
2024-01-31T15:42:47.555Z,51.81
2024-01-31T15:45:14.370Z,52.01
2024-01-31T15:47:41.162Z,52.17
2024-01-31T15:50:09.988Z,52.26
2024-01-31T15:52:36.731Z,52.52
2024-01-31T15:55:04.182Z,52.76
2024-01-31T15:57:30.991Z,53.10
2024-01-31T15:59:57.650Z,53.15
2024-01-31T16:02:24.479Z,53.77
2024-01-31T16:04:51.166Z,53.94
2024-01-31T16:07:18.920Z,54.20
2024-01-31T16:09:45.641Z,54.69
2024-01-31T16:12:12.844Z,55.09
2024-01-31T16:14:39.734Z,55.35
2024-01-31T16:17:06.483Z,56.05
2024-01-31T16:19:33.423Z,56.43
2024-01-31T16:22:00.124Z,56.90
2024-01-31T16:24:26.951Z,57.49
2024-01-31T16:26:53.669Z,57.90
2024-01-31T16:29:20.464Z,58.44
2024-01-31T16:31:47.121Z,58.91
2024-01-31T16:34:20.148Z,59.27
2024-01-31T16:36:47.921Z,59.76
2024-01-31T16:39:14.662Z,60.04
2024-01-31T16:41:41.339Z,60.30
2024-01-31T16:44:08.103Z,60.59
2024-01-31T16:46:35.121Z,60.87
2024-01-31T16:49:01.950Z,61.10
2024-01-31T16:51:29.129Z,61.24
2024-01-31T16:53:55.875Z,61.46
2024-01-31T16:56:22.641Z,61.68
2024-01-31T16:58:49.338Z,61.81
2024-01-31T17:01:17.188Z,61.92
2024-01-31T17:03:44.049Z,62.23
2024-01-31T17:06:10.842Z,62.30
2024-01-31T17:08:37.942Z,62.47
2024-01-31T17:11:04.680Z,62.51
2024-01-31T17:13:31.484Z,62.41
2024-01-31T17:15:58.865Z,62.78
2024-01-31T17:18:25.736Z,62.62
2024-01-31T17:20:52.610Z,62.72
2024-01-31T17:23:19.438Z,62.67
2024-01-31T17:25:46.197Z,62.71
2024-01-31T17:28:13.590Z,62.60
2024-01-31T17:30:41.369Z,62.66
2024-01-31T17:33:09.389Z,62.68
2024-01-31T17:35:36.316Z,62.52
2024-01-31T17:38:03.335Z,62.60
2024-01-31T17:40:30.128Z,62.64
2024-01-31T17:42:56.934Z,62.77
2024-01-31T17:45:23.587Z,62.61
2024-01-31T17:47:51.407Z,62.64
2024-01-31T17:50:19.092Z,62.81
2024-01-31T17:52:45.778Z,62.89
2024-01-31T17:55:13.520Z,62.99
2024-01-31T17:57:40.252Z,63.01
2024-01-31T18:00:09.142Z,63.23
2024-01-31T18:02:36.496Z,63.44
2024-01-31T18:05:03.267Z,63.70
2024-01-31T18:07:30.168Z,63.92
2024-01-31T18:09:56.914Z,64.10
2024-01-31T18:12:28.295Z,64.18
2024-01-31T18:14:55.747Z,64.42
2024-01-31T18:17:22.487Z,64.70
2024-01-31T18:19:49.334Z,65.06
2024-01-31T18:22:16.215Z,65.34
2024-01-31T18:24:43.070Z,65.79
2024-01-31T18:27:09.958Z,65.92
2024-01-31T18:29:36.889Z,66.37
2024-01-31T18:32:05.450Z,66.74
2024-01-31T18:34:32.869Z,66.91
2024-01-31T18:37:02.367Z,67.09
2024-01-31T18:39:29.314Z,67.55
2024-01-31T18:41:55.995Z,68.06
2024-01-31T18:44:22.839Z,68.26
2024-01-31T18:46:49.566Z,68.51
2024-01-31T18:49:19.897Z,68.82
2024-01-31T18:51:46.803Z,69.09
2024-01-31T18:54:13.451Z,69.55
2024-01-31T18:56:41.023Z,69.78
2024-01-31T18:59:08.733Z,69.98
2024-01-31T19:01:35.459Z,70.19
2024-01-31T19:04:02.265Z,70.36
2024-01-31T19:06:29.427Z,70.58
2024-01-31T19:08:56.601Z,70.72
2024-01-31T19:11:23.331Z,70.87
2024-01-31T19:13:52.846Z,70.98
2024-01-31T19:16:19.643Z,71.34
2024-01-31T19:18:47.940Z,71.48
2024-01-31T19:21:14.949Z,71.61
2024-01-31T19:23:41.661Z,71.84
2024-01-31T19:26:08.463Z,71.96
2024-01-31T19:28:35.266Z,72.30
2024-01-31T19:31:02.002Z,72.57
2024-01-31T19:33:29.161Z,72.84
2024-01-31T19:35:56.689Z,73.12
2024-01-31T19:38:23.671Z,73.25
2024-01-31T19:40:50.460Z,73.55
2024-01-31T19:43:17.761Z,73.96
2024-01-31T19:45:44.477Z,74.15
2024-01-31T19:48:11.428Z,74.23
2024-01-31T19:50:38.399Z,74.57
2024-01-31T19:53:05.207Z,74.74
2024-01-31T19:55:32.187Z,75.02
2024-01-31T19:57:58.973Z,75.33
2024-01-31T20:00:25.872Z,75.64
2024-01-31T20:02:52.795Z,75.81
2024-01-31T20:05:19.655Z,76.43
2024-01-31T20:07:46.901Z,76.77
2024-01-31T20:10:13.726Z,76.85
2024-01-31T20:12:40.513Z,77.41
2024-01-31T20:15:07.786Z,77.52
2024-01-31T20:17:34.901Z,77.58
2024-01-31T20:20:02.039Z,77.73
2024-01-31T20:22:28.971Z,77.84
2024-01-31T20:24:56.379Z,78.26
2024-01-31T20:27:25.656Z,78.40
2024-01-31T20:29:53.870Z,78.53
2024-01-31T20:32:20.625Z,78.87
2024-01-31T20:34:47.621Z,78.89
2024-01-31T20:37:14.573Z,79.07
2024-01-31T20:39:43.979Z,79.41
2024-01-31T20:42:12.125Z,79.78
2024-01-31T20:44:39.666Z,79.89
2024-01-31T20:47:06.638Z,79.84
2024-01-31T20:49:33.637Z,79.69
2024-01-31T20:52:00.483Z,79.54
2024-01-31T20:54:27.352Z,79.20
2024-01-31T20:56:55.399Z,79.10
2024-01-31T20:59:22.307Z,78.90
2024-01-31T21:01:49.598Z,78.96
2024-01-31T21:04:16.469Z,79.05
2024-01-31T21:06:43.581Z,79.02
2024-01-31T21:09:10.617Z,78.94
2024-01-31T21:11:37.609Z,78.88
2024-01-31T21:14:04.467Z,78.79
2024-01-31T21:16:31.503Z,78.84
2024-01-31T21:18:58.543Z,78.71
2024-01-31T21:21:25.449Z,78.64
2024-01-31T21:23:53.040Z,78.57
2024-01-31T21:26:20.049Z,78.60
2024-01-31T21:28:46.852Z,78.67
2024-01-31T21:31:13.707Z,78.64
2024-01-31T21:33:41.715Z,78.59
2024-01-31T21:36:11.798Z,78.61
2024-01-31T21:38:41.554Z,78.44
2024-01-31T21:41:12.427Z,78.53
2024-01-31T21:43:42.728Z,78.55
2024-01-31T21:46:13.307Z,78.52
2024-01-31T21:48:42.777Z,78.59
2024-01-31T21:51:11.771Z,78.63
2024-01-31T21:53:41.036Z,78.53
2024-01-31T21:56:17.709Z,78.57
2024-01-31T21:58:46.359Z,78.48
2024-01-31T22:01:15.712Z,78.70
2024-01-31T22:03:54.022Z,78.71
2024-01-31T22:06:28.766Z,78.82
2024-01-31T22:08:58.905Z,78.87
2024-01-31T22:11:27.740Z,78.88
2024-01-31T22:13:57.185Z,78.82
2024-01-31T22:16:27.708Z,78.75
2024-01-31T22:18:57.126Z,78.64
2024-01-31T22:21:26.252Z,78.58
2024-01-31T22:23:55.777Z,78.61
2024-01-31T22:26:25.865Z,78.54
2024-01-31T22:28:54.707Z,78.67
2024-01-31T22:31:24.182Z,78.68
2024-01-31T22:42:11.065Z,79.09
2024-01-31T22:44:37.946Z,79.21
2024-01-31T22:47:05.217Z,79.27
2024-01-31T22:49:32.337Z,79.43
2024-01-31T22:51:59.315Z,79.55
2024-01-31T22:54:28.609Z,79.74
2024-01-31T22:56:58.851Z,80.19
2024-01-31T22:59:25.983Z,80.61
2024-01-31T23:01:56.457Z,81.03
2024-01-31T23:04:23.544Z,81.59
2024-01-31T23:06:50.691Z,82.01
2024-01-31T23:09:17.728Z,82.71
2024-01-31T23:11:45.453Z,83.34
2024-01-31T23:14:12.734Z,84.07
2024-01-31T23:16:39.813Z,84.77
2024-01-31T23:19:07.116Z,85.45
2024-01-31T23:21:34.117Z,86.03
2024-01-31T23:24:01.143Z,86.38
2024-01-31T23:26:28.142Z,87.13
2024-01-31T23:28:55.766Z,87.76
2024-01-31T23:31:22.511Z,88.20
2024-01-31T23:33:49.695Z,88.74
2024-01-31T23:36:16.890Z,89.47
2024-01-31T23:38:44.383Z,90.35
2024-01-31T23:41:11.350Z,90.77
2024-01-31T23:43:38.153Z,91.33
2024-01-31T23:46:05.215Z,91.76
2024-01-31T23:48:32.283Z,92.12
2024-01-31T23:51:00.046Z,92.55
2024-01-31T23:53:27.690Z,92.89
2024-01-31T23:55:54.513Z,93.61
2024-01-31T23:58:21.488Z,93.93
